NCAR-RAP Real-Time Weather Data

Output produced by METARs form (10 April 2020  07:16 UTC)
found at http://weather.rap.ucar.edu/surface/
 
KABI 100652Z A3006 RMK AO2 SLPNO $
KABI 100552Z A3006 RMK AO2 SLPNO 402170150 51028 $
KABI 100452Z A3004 RMK AO2 SLPNO $
KABI 100352Z 01005KT 10SM OVC100 15/14 A3002 RMK AO2 SLP151 T01500139 $
KABI 100252Z 36004KT 10SM OVC100 16/14 A2998 RMK AO2 SLP136 T01560139 55001 $
KABI 100152Z 20005KT 10SM BKN100 OVC110 15/14 A2997 RMK AO2 SLP135 T01500139 $
KABI 100052Z 00000KT 10SM FEW075 SCT090 OVC110 17/13 A2997 RMK AO2 SLP133 T01670133 $
KABI 092352Z 03005KT 10SM OVC090 17/14 A2998 RMK AO2 RAB2258E21 SLP136 P0000 60002 T01720139 10217 20167 53013 $
KABI 092252Z 04008KT 10SM OVC100 17/13 A2996 RMK AO2 RAE50 SLP132 P0001 T01720133 $
KABI 092152Z 05010KT 10SM -RA OVC100 18/13 A2995 RMK AO2 RAB30 SLP125 P0000 T01830133
KABI 092052Z 01012KT 10SM SCT110 20/13 A2994 RMK AO2 SLP121 60001 T02000128 56027
KABI 091952Z 01007KT 10SM BKN100 21/16 A2994 RMK AO2 SLP120 T02110156
KABI 091852Z 00000KT 10SM OVC100 20/15 A2996 RMK AO2 RAE10B26E35 SLP128 P0001 T02000150
KABI 091752Z 00000KT 9SM -RA BKN040 OVC100 17/14 A3002 RMK AO2 RAB03 SLP150 P0001 60001 T01720139 10183 20150 50022
KABI 091652Z 30004KT 10SM OVC100 18/13 A3003 RMK AO2 LTG DSNT S SLP150 T01830133
KABI 091552Z 35005KT 10SM FEW065 BKN110 18/13 A2999 RMK AO2 SLP138 T01780128
KABI 091452Z 30003KT 10SM FEW120 18/13 A2996 RMK AO2 SLP126 T01780128 51017
KABI 091352Z 00000KT 10SM CLR 17/12 A2994 RMK AO2 SLP119 T01720122
KABI 091252Z 00000KT 10SM CLR 16/11 A2993 RMK AO2 SLP115 T01560111
KABI 091152Z 14005KT 10SM CLR 17/11 A2990 RMK AO2 SLP102 T01670106 10206 20150 50001
KABI 091052Z 22003KT 10SM CLR 16/10 A2990 RMK AO2 SLP104 T01560100
KABI 090952Z 04005KT 10SM CLR 19/09 A2990 RMK AO2 SLP099 T01890089
KABI 090852Z 20003KT 10SM CLR 17/10 A2990 RMK AO2 SLP100 T01720100 58007